createdAt,value
2022-11-04T00:02:03.987Z,67.20
2022-11-04T00:04:30.918Z,67.20
2022-11-04T00:06:57.967Z,67.10
2022-11-04T00:09:30.002Z,67.30
2022-11-04T00:12:15.629Z,67.20
2022-11-04T00:14:42.357Z,67.30
2022-11-04T00:30:19.636Z,64.90
2022-11-04T00:33:04.718Z,66.50
2022-11-04T00:35:31.409Z,66.70
2022-11-04T00:37:57.978Z,66.90
2022-11-04T00:40:24.564Z,67.00
2022-11-04T00:42:51.133Z,67.10
2022-11-04T00:45:17.740Z,67.10
2022-11-04T00:47:44.307Z,67.10
2022-11-04T00:50:10.937Z,67.10
2022-11-04T00:52:37.800Z,67.00
2022-11-04T00:55:05.014Z,66.50
2022-11-04T00:57:32.097Z,67.10
2022-11-04T00:59:58.814Z,67.10
2022-11-04T01:02:26.302Z,67.10
2022-11-04T01:04:53.040Z,67.10
2022-11-04T01:07:19.926Z,67.20
2022-11-04T01:09:46.514Z,67.10
2022-11-04T01:12:13.091Z,67.10
2022-11-04T01:14:39.670Z,67.20
2022-11-04T01:17:06.313Z,67.20
2022-11-04T01:19:32.892Z,67.20
2022-11-04T01:21:59.486Z,67.30
2022-11-04T01:24:26.183Z,67.20
2022-11-04T01:26:52.773Z,67.20
2022-11-04T01:29:19.383Z,67.20
2022-11-04T01:31:45.959Z,67.20
2022-11-04T01:34:12.631Z,66.60
2022-11-04T01:36:39.383Z,67.20
2022-11-04T01:39:06.052Z,67.20
2022-11-04T01:41:33.884Z,67.20
2022-11-04T01:44:41.421Z,67.20
2022-11-04T01:47:39.818Z,67.20
2022-11-04T01:50:15.653Z,67.20
2022-11-04T01:52:57.176Z,66.80
2022-11-04T01:55:27.506Z,66.60
2022-11-04T01:57:57.692Z,67.20
2022-11-04T02:00:24.831Z,67.30
2022-11-04T02:02:58.945Z,68.00
2022-11-04T02:05:25.856Z,67.30
2022-11-04T02:07:55.772Z,67.20
2022-11-04T02:10:25.938Z,67.30
2022-11-04T02:12:53.943Z,67.30
2022-11-04T02:15:56.354Z,67.20
2022-11-04T02:18:54.457Z,67.30
2022-11-04T02:21:33.021Z,67.20
2022-11-04T02:24:26.951Z,67.20
2022-11-04T02:27:15.211Z,67.20
2022-11-04T02:30:03.956Z,67.20
2022-11-04T02:32:48.718Z,67.10
2022-11-04T02:35:38.869Z,67.10
2022-11-04T02:38:10.932Z,67.10
2022-11-04T02:40:49.444Z,67.20
2022-11-04T02:43:19.083Z,67.10
2022-11-04T02:45:48.869Z,67.10
2022-11-04T02:48:37.993Z,67.20
2022-11-04T02:51:11.095Z,67.10
2022-11-04T02:54:02.845Z,66.50
2022-11-04T02:56:31.216Z,67.10
2022-11-04T02:59:05.085Z,67.10
2022-11-04T03:01:35.876Z,67.20
2022-11-04T03:04:11.373Z,67.10
2022-11-04T03:06:38.716Z,67.10
2022-11-04T03:09:06.151Z,67.20
2022-11-04T03:11:33.440Z,67.00
2022-11-04T03:14:07.721Z,67.00
2022-11-04T03:16:38.274Z,67.00
2022-11-04T03:19:13.869Z,66.00
2022-11-04T03:21:50.039Z,67.00
2022-11-04T03:24:16.794Z,67.10
2022-11-04T03:26:53.495Z,67.00
2022-11-04T03:29:39.531Z,67.10
2022-11-04T03:32:24.377Z,67.00
2022-11-04T03:34:51.823Z,67.10
2022-11-04T03:37:18.472Z,67.10
2022-11-04T03:39:45.244Z,67.00
2022-11-04T03:42:23.099Z,67.00
2022-11-04T03:44:51.956Z,67.00
2022-11-04T03:47:20.656Z,67.00
2022-11-04T03:49:49.120Z,67.10
2022-11-04T03:52:17.527Z,67.00
2022-11-04T03:54:45.066Z,67.00
2022-11-04T03:57:25.483Z,67.00
2022-11-04T04:00:11.833Z,67.10
2022-11-04T04:02:44.672Z,67.10
2022-11-04T04:05:34.363Z,67.10
2022-11-04T04:08:35.633Z,67.10
2022-11-04T04:11:23.097Z,67.10
2022-11-04T04:13:55.326Z,67.10
2022-11-04T04:16:33.111Z,66.40
2022-11-04T04:19:13.537Z,67.10
2022-11-04T04:21:45.692Z,67.10
2022-11-04T04:24:34.844Z,67.20
2022-11-04T04:27:21.314Z,67.20
2022-11-04T04:29:51.107Z,67.10
2022-11-04T04:32:20.321Z,67.00
2022-11-04T04:34:46.960Z,67.20
2022-11-04T04:37:23.304Z,67.20
2022-11-04T04:40:16.132Z,67.10
2022-11-04T04:43:03.996Z,67.00
2022-11-04T04:45:32.748Z,67.10
2022-11-04T04:47:59.565Z,67.00
2022-11-04T04:50:30.659Z,67.10
2022-11-04T04:52:59.393Z,67.10
2022-11-04T04:55:26.017Z,67.10
2022-11-04T04:57:52.594Z,67.10
2022-11-04T05:00:20.746Z,67.10
2022-11-04T05:02:48.622Z,67.10
2022-11-04T05:07:47.963Z,67.10
2022-11-04T05:10:16.329Z,67.10
2022-11-04T05:13:02.087Z,67.20
2022-11-04T05:15:29.405Z,67.10
2022-11-04T05:18:01.005Z,67.10
2022-11-04T05:20:29.004Z,67.10
2022-11-04T05:22:55.744Z,67.10
2022-11-04T05:25:22.322Z,67.10
2022-11-04T05:27:48.937Z,67.10
2022-11-04T05:30:15.603Z,67.20
2022-11-04T05:32:42.208Z,67.10
2022-11-04T05:35:08.966Z,67.20
2022-11-04T05:37:35.585Z,67.10
2022-11-04T05:40:02.179Z,67.20
2022-11-04T05:42:29.562Z,67.10
2022-11-04T05:44:56.154Z,67.20
2022-11-04T05:47:22.730Z,67.10
2022-11-04T05:49:49.313Z,67.00
2022-11-04T05:52:15.916Z,67.10
2022-11-04T05:54:42.524Z,67.20
2022-11-04T05:57:10.666Z,67.00
2022-11-04T05:59:37.285Z,67.10
2022-11-04T06:02:04.086Z,67.10
2022-11-04T06:04:30.807Z,67.00
2022-11-04T06:06:57.467Z,66.90
2022-11-04T06:09:38.788Z,66.90
2022-11-04T06:12:16.709Z,66.90
2022-11-04T06:14:43.607Z,66.80
2022-11-04T06:17:16.130Z,66.90
2022-11-04T06:19:43.317Z,66.80
2022-11-04T06:22:12.365Z,66.80
2022-11-04T06:24:39.172Z,66.70
2022-11-04T06:27:05.943Z,66.70
2022-11-04T06:29:32.812Z,66.80
2022-11-04T06:31:59.460Z,66.80
2022-11-04T06:34:29.157Z,66.80
2022-11-04T06:36:55.730Z,66.20
2022-11-04T06:39:22.323Z,66.80
2022-11-04T06:41:51.580Z,66.70
2022-11-04T06:44:18.702Z,66.70
2022-11-04T06:46:45.317Z,66.70
2022-11-04T06:49:19.991Z,66.70
2022-11-04T06:51:50.078Z,66.70
2022-11-04T06:54:17.791Z,66.80
2022-11-04T06:56:44.980Z,67.00
2022-11-04T06:59:20.469Z,66.90
2022-11-04T07:01:49.044Z,67.10
2022-11-04T07:04:15.701Z,67.00
2022-11-04T07:06:44.318Z,66.90
2022-11-04T07:09:13.347Z,67.00
2022-11-04T07:11:40.838Z,66.90
2022-11-04T07:14:08.771Z,67.10
2022-11-04T07:16:35.701Z,67.20
2022-11-04T07:19:02.382Z,67.40
2022-11-04T07:21:29.197Z,67.70
2022-11-04T07:23:55.854Z,67.40
2022-11-04T07:26:22.679Z,67.20
2022-11-04T07:28:49.550Z,67.20
2022-11-04T07:31:17.849Z,67.10
2022-11-04T07:33:49.600Z,67.10
2022-11-04T07:36:17.109Z,67.10
2022-11-04T07:38:43.967Z,67.10
2022-11-04T07:41:10.967Z,67.10
2022-11-04T07:43:37.545Z,67.20
2022-11-04T07:46:11.048Z,67.10
2022-11-04T07:48:38.407Z,67.20
2022-11-04T07:51:06.922Z,67.20
2022-11-04T07:53:34.180Z,67.10
2022-11-04T07:56:04.644Z,66.40
2022-11-04T07:58:31.560Z,66.70
2022-11-04T08:01:00.145Z,66.70
2022-11-04T08:03:27.025Z,67.10
2022-11-04T08:06:01.963Z,67.60
2022-11-04T08:08:28.832Z,67.20
2022-11-04T08:11:01.130Z,66.90
2022-11-04T08:13:29.100Z,67.00
2022-11-04T08:15:56.935Z,67.00
2022-11-04T08:18:23.783Z,66.90
2022-11-04T08:20:52.050Z,66.80
2022-11-04T08:23:19.253Z,66.70
2022-11-04T08:25:46.363Z,66.70
2022-11-04T08:28:17.257Z,66.70
2022-11-04T08:30:58.772Z,66.70
2022-11-04T08:33:27.203Z,66.60
2022-11-04T08:35:55.454Z,66.40
2022-11-04T08:38:22.225Z,66.40
2022-11-04T08:40:48.870Z,66.50
2022-11-04T08:43:18.551Z,66.50
2022-11-04T08:45:46.638Z,65.70
2022-11-04T08:48:14.300Z,66.30
2022-11-04T08:50:41.007Z,66.10
2022-11-04T08:53:08.101Z,66.30
2022-11-04T08:55:35.442Z,65.40
2022-11-04T08:58:02.747Z,66.00
2022-11-04T09:00:29.540Z,66.70
2022-11-04T09:02:56.269Z,65.90
2022-11-04T09:05:23.148Z,66.10
2022-11-04T09:07:49.732Z,66.10
2022-11-04T09:10:17.216Z,66.10
2022-11-04T09:12:44.883Z,66.10
2022-11-04T09:15:12.648Z,65.90
2022-11-04T09:17:40.394Z,66.80
2022-11-04T09:20:07.703Z,65.90
2022-11-04T09:22:34.289Z,65.90
2022-11-04T09:25:01.287Z,65.70
2022-11-04T09:27:27.887Z,65.50
2022-11-04T09:29:54.472Z,65.50
2022-11-04T09:32:21.433Z,65.70
2022-11-04T09:34:48.037Z,65.70
2022-11-04T09:37:15.832Z,65.70
2022-11-04T09:39:42.512Z,65.70
2022-11-04T09:42:28.809Z,65.70
2022-11-04T09:45:21.225Z,65.80
2022-11-04T09:47:51.028Z,65.80
2022-11-04T09:50:25.020Z,65.90
2022-11-04T09:52:58.602Z,65.80
2022-11-04T09:55:32.468Z,65.80
2022-11-04T09:57:59.407Z,65.80
2022-11-04T10:00:28.312Z,65.80
2022-11-04T10:03:22.278Z,65.60
2022-11-04T10:06:18.305Z,65.10
2022-11-04T10:08:59.784Z,65.90
2022-11-04T10:11:46.056Z,65.80
2022-11-04T10:14:35.288Z,65.80
2022-11-04T10:17:39.311Z,65.90
2022-11-04T10:20:44.101Z,65.90
2022-11-04T10:23:27.126Z,65.80
2022-11-04T10:26:15.946Z,65.80
2022-11-04T10:29:02.647Z,66.00
2022-11-04T10:31:29.386Z,65.80
2022-11-04T10:34:05.916Z,65.00
2022-11-04T10:36:33.522Z,65.50
2022-11-04T10:39:08.183Z,65.40
2022-11-04T10:41:38.093Z,60.00
2022-11-04T10:44:19.659Z,59.90
2022-11-04T10:47:10.978Z,58.70
2022-11-04T10:50:28.931Z,59.30
2022-11-04T10:53:20.764Z,57.60
2022-11-04T10:56:17.243Z,57.90
2022-11-04T10:58:46.791Z,58.20
2022-11-04T11:01:25.450Z,58.90
2022-11-04T11:03:52.373Z,62.50
2022-11-04T11:06:24.943Z,61.70
2022-11-04T11:08:54.063Z,61.50
2022-11-04T11:11:45.262Z,61.60
2022-11-04T11:14:30.537Z,61.50
2022-11-04T11:17:17.043Z,61.70
2022-11-04T11:20:08.063Z,61.70
2022-11-04T11:22:38.438Z,62.10
2022-11-04T11:25:24.715Z,62.20
2022-11-04T11:27:54.858Z,62.50
2022-11-04T11:30:33.868Z,62.70
2022-11-04T11:33:08.434Z,62.60
2022-11-04T11:35:41.921Z,62.50
2022-11-04T11:38:28.592Z,63.20
2022-11-04T11:41:24.509Z,63.50
2022-11-04T11:43:53.568Z,63.60
2022-11-04T11:46:34.740Z,63.20
2022-11-04T11:49:05.809Z,63.80
2022-11-04T11:51:37.689Z,64.10
2022-11-04T11:54:19.028Z,64.40
2022-11-04T12:03:11.858Z,64.60
2022-11-04T12:11:47.514Z,65.00
2022-11-04T12:14:25.152Z,65.00
2022-11-04T12:16:54.844Z,65.20
2022-11-04T12:19:32.260Z,65.50
2022-11-04T12:22:01.901Z,65.40
2022-11-04T12:24:58.515Z,65.50
2022-11-04T12:27:50.699Z,65.40
2022-11-04T12:30:32.335Z,65.60
2022-11-04T12:33:10.618Z,65.50
2022-11-04T12:35:53.476Z,65.30
2022-11-04T12:38:38.031Z,65.10
2022-11-04T12:42:14.809Z,65.00
2022-11-04T12:44:54.019Z,64.80
2022-11-04T12:47:43.589Z,65.40
2022-11-04T12:50:19.113Z,65.70
2022-11-04T12:53:09.502Z,65.80
2022-11-04T12:56:09.108Z,65.80
2022-11-04T12:58:41.656Z,65.90
2022-11-04T13:01:23.205Z,66.00
2022-11-04T13:04:06.965Z,66.20
2022-11-04T13:06:48.849Z,66.10
2022-11-04T13:09:24.344Z,66.30
2022-11-04T13:12:08.825Z,66.20
2022-11-04T13:14:44.650Z,66.30
2022-11-04T13:17:14.687Z,67.10
2022-11-04T13:19:54.099Z,66.40
2022-11-04T13:22:32.584Z,66.40
2022-11-04T13:25:12.458Z,65.70
2022-11-04T13:27:48.053Z,66.30
2022-11-04T13:30:29.915Z,66.40
2022-11-04T13:33:08.914Z,66.30
2022-11-04T13:35:55.750Z,65.80
2022-11-04T13:38:40.544Z,66.50
2022-11-04T13:41:21.385Z,66.50
2022-11-04T13:43:57.758Z,66.40
2022-11-04T13:46:34.174Z,66.30
2022-11-04T13:49:02.724Z,66.30
2022-11-04T13:52:06.939Z,66.40
2022-11-04T13:54:37.767Z,66.20
2022-11-04T13:57:14.655Z,66.30
2022-11-04T13:59:44.115Z,66.40
2022-11-04T14:02:19.841Z,66.60
2022-11-04T14:04:47.303Z,65.80
2022-11-04T14:07:17.823Z,66.40
2022-11-04T14:09:44.391Z,66.50
2022-11-04T14:12:11.092Z,66.50
2022-11-04T14:14:39.848Z,66.40
2022-11-04T14:17:35.271Z,66.50
2022-11-04T14:20:21.210Z,66.50
2022-11-04T14:22:56.605Z,66.60
2022-11-04T14:25:41.011Z,66.40
2022-11-04T14:28:10.660Z,66.50
2022-11-04T14:30:49.488Z,66.40
2022-11-04T14:33:49.200Z,66.50
2022-11-04T14:36:15.908Z,65.90
2022-11-04T14:38:43.400Z,66.50
2022-11-04T14:41:18.621Z,66.50
2022-11-04T14:43:47.506Z,66.00
2022-11-04T14:46:20.619Z,66.50
2022-11-04T14:48:52.222Z,66.50
2022-11-04T14:51:28.667Z,66.50
2022-11-04T14:54:25.644Z,66.70
2022-11-04T14:56:52.776Z,66.20
2022-11-04T14:59:22.525Z,66.60
2022-11-04T15:01:52.333Z,66.80
2022-11-04T15:04:29.462Z,65.90
2022-11-04T15:07:01.188Z,66.50
2022-11-04T15:09:31.245Z,66.50
2022-11-04T15:12:31.231Z,66.40
2022-11-04T15:14:59.849Z,66.60
2022-11-04T15:17:29.924Z,66.20
2022-11-04T15:19:59.471Z,66.30
2022-11-04T15:22:27.826Z,66.30
2022-11-04T15:24:54.763Z,66.30
2022-11-04T15:27:29.096Z,66.30
2022-11-04T15:30:04.134Z,66.60
2022-11-04T15:32:31.342Z,66.50
2022-11-04T15:34:59.391Z,66.30
2022-11-04T15:37:28.726Z,66.20
2022-11-04T15:39:57.478Z,66.30
2022-11-04T15:42:37.317Z,66.20
2022-11-04T15:45:55.798Z,65.80
2022-11-04T15:48:33.509Z,66.50
2022-11-04T15:51:15.097Z,66.40
2022-11-04T15:53:51.289Z,66.50
2022-11-04T15:56:24.499Z,66.60
2022-11-04T15:58:52.855Z,66.60
2022-11-04T16:01:20.912Z,66.60
2022-11-04T16:03:54.041Z,67.10
2022-11-04T16:06:38.274Z,67.10
2022-11-04T16:09:13.990Z,67.30
2022-11-04T16:11:40.814Z,67.50
2022-11-04T16:14:23.322Z,67.60
2022-11-04T16:16:52.379Z,67.60
2022-11-04T16:19:23.596Z,67.90
2022-11-04T16:22:11.368Z,67.90
2022-11-04T16:24:40.444Z,67.50
2022-11-04T16:27:11.487Z,68.10
2022-11-04T16:29:40.601Z,68.20
2022-11-04T16:32:23.660Z,68.30
2022-11-04T16:34:52.705Z,67.60
2022-11-04T16:37:19.302Z,68.30
2022-11-04T16:39:46.077Z,68.30
2022-11-04T16:42:14.379Z,68.50
2022-11-04T16:44:47.066Z,67.90
2022-11-04T16:47:14.379Z,68.50
2022-11-04T16:49:41.137Z,68.50
2022-11-04T16:52:13.419Z,68.70
2022-11-04T16:54:40.081Z,68.30
2022-11-04T16:57:11.567Z,69.00
2022-11-04T16:59:38.344Z,69.10
2022-11-04T17:02:28.511Z,69.00
2022-11-04T17:04:55.508Z,69.10
2022-11-04T17:07:30.517Z,69.10
2022-11-04T17:10:20.913Z,69.20
2022-11-04T17:12:47.831Z,69.30
2022-11-04T17:15:15.967Z,69.30
2022-11-04T17:17:44.370Z,69.40
2022-11-04T17:20:13.872Z,69.00
2022-11-04T17:22:40.936Z,68.90
2022-11-04T17:25:21.500Z,68.70
2022-11-04T17:27:48.898Z,68.50
2022-11-04T17:30:16.902Z,68.40
2022-11-04T17:32:44.529Z,68.30
2022-11-04T17:35:11.551Z,68.40
2022-11-04T17:37:38.545Z,68.30
2022-11-04T17:40:06.593Z,68.20
2022-11-04T17:42:52.131Z,68.10
2022-11-04T17:45:18.759Z,68.10
2022-11-04T17:47:46.292Z,68.10
2022-11-04T17:50:13.711Z,68.10
2022-11-04T17:52:42.066Z,68.00
2022-11-04T17:55:15.449Z,68.00
2022-11-04T17:57:43.557Z,67.90
2022-11-04T18:00:10.841Z,68.00
2022-11-04T18:02:38.308Z,68.20
2022-11-04T18:05:05.616Z,67.50
2022-11-04T18:07:32.220Z,69.20
2022-11-04T18:09:58.830Z,68.10
2022-11-04T18:12:37.984Z,68.20
2022-11-04T18:15:13.271Z,67.60
2022-11-04T18:17:44.327Z,68.20
2022-11-04T18:20:15.165Z,68.10
2022-11-04T18:22:42.913Z,68.30
2022-11-04T18:25:11.087Z,68.30
2022-11-04T18:27:38.127Z,68.30
2022-11-04T18:30:05.473Z,68.30
2022-11-04T18:32:32.884Z,68.30
2022-11-04T18:34:59.497Z,68.30
2022-11-04T18:37:26.267Z,68.40
2022-11-04T18:39:52.963Z,68.60
2022-11-04T18:42:19.554Z,68.30
2022-11-04T18:44:46.139Z,68.40
2022-11-04T18:47:14.014Z,68.50
2022-11-04T18:49:40.798Z,68.50
2022-11-04T18:52:07.407Z,68.40
2022-11-04T18:54:37.117Z,67.00
2022-11-04T18:57:04.540Z,67.90
2022-11-04T18:59:31.186Z,69.80
2022-11-04T19:01:57.883Z,68.60
2022-11-04T19:04:24.539Z,68.60
2022-11-04T19:06:51.239Z,68.60
2022-11-04T19:12:23.450Z,68.60
2022-11-04T19:14:50.155Z,68.70
2022-11-04T19:17:16.804Z,68.60
2022-11-04T19:19:43.407Z,68.60
2022-11-04T19:22:10.839Z,68.70
2022-11-04T19:24:38.178Z,68.00
2022-11-04T19:27:05.098Z,68.60
2022-11-04T19:29:32.867Z,68.60
2022-11-04T19:31:59.984Z,68.60
2022-11-04T19:34:26.580Z,68.60
2022-11-04T19:36:53.219Z,68.60
2022-11-04T19:39:19.797Z,68.70
2022-11-04T19:42:04.846Z,68.60
2022-11-04T19:44:31.905Z,68.70
2022-11-04T19:46:58.525Z,68.70
2022-11-04T19:49:25.106Z,68.70
2022-11-04T19:51:51.924Z,68.70
2022-11-04T19:54:19.039Z,68.70
2022-11-04T19:56:45.703Z,68.10
2022-11-04T19:59:12.528Z,68.80
2022-11-04T20:01:40.003Z,68.70
2022-11-04T20:04:07.118Z,68.90
2022-11-04T20:06:33.969Z,68.70
2022-11-04T20:09:06.135Z,68.80
2022-11-04T20:12:00.349Z,68.90
2022-11-04T20:14:28.380Z,68.90
2022-11-04T20:16:55.058Z,68.70
2022-11-04T20:19:23.049Z,68.90
2022-11-04T20:21:50.295Z,68.90
2022-11-04T20:24:17.314Z,68.90
2022-11-04T20:26:44.075Z,69.00
2022-11-04T20:29:11.799Z,68.80
2022-11-04T20:31:39.450Z,68.90
2022-11-04T20:34:07.922Z,68.90
2022-11-04T20:36:36.172Z,68.90
2022-11-04T20:39:06.393Z,68.80
2022-11-04T20:41:33.129Z,68.90
2022-11-04T20:43:59.732Z,69.00
2022-11-04T20:46:33.238Z,68.90
2022-11-04T20:49:01.088Z,68.90
2022-11-04T20:51:31.027Z,69.10
2022-11-04T20:54:00.337Z,69.00
2022-11-04T20:56:31.236Z,69.00
2022-11-04T20:58:59.929Z,69.00
2022-11-04T21:01:30.086Z,68.90
2022-11-04T21:04:00.514Z,69.00
2022-11-04T21:06:28.216Z,69.00
2022-11-04T21:08:55.205Z,69.10
2022-11-04T21:11:21.964Z,69.00
2022-11-04T21:13:48.580Z,69.00
2022-11-04T21:16:16.667Z,69.00
2022-11-04T21:18:43.891Z,69.00
2022-11-04T21:21:13.878Z,69.00
2022-11-04T21:23:40.697Z,69.00
2022-11-04T21:26:19.235Z,69.00
2022-11-04T21:28:46.144Z,69.30
2022-11-04T21:31:12.830Z,69.20
2022-11-04T21:33:39.674Z,69.20
2022-11-04T21:36:08.645Z,69.10
2022-11-04T21:38:35.349Z,68.90
2022-11-04T21:41:07.793Z,69.30
2022-11-04T21:43:34.635Z,68.90
2022-11-04T21:46:06.647Z,69.00
2022-11-04T21:48:35.071Z,69.00
2022-11-04T21:51:07.356Z,69.00
2022-11-04T21:53:34.474Z,68.90
2022-11-04T21:56:05.411Z,69.00
2022-11-04T21:58:32.373Z,68.90
2022-11-04T22:00:59.700Z,69.00
2022-11-04T22:03:26.690Z,68.90
2022-11-04T22:06:01.481Z,68.90
2022-11-04T22:08:29.228Z,68.80
2022-11-04T22:10:56.251Z,68.90
2022-11-04T22:13:23.496Z,68.80
2022-11-04T22:15:59.529Z,69.50
2022-11-04T22:18:31.663Z,68.80
2022-11-04T22:21:02.880Z,68.60
2022-11-04T22:23:31.659Z,68.60
2022-11-04T22:26:08.123Z,67.90
2022-11-04T22:28:34.809Z,68.60
2022-11-04T22:31:11.454Z,68.50
2022-11-04T22:33:40.481Z,68.60
2022-11-04T22:36:07.621Z,68.50
2022-11-04T22:38:35.368Z,68.90
2022-11-04T22:41:03.718Z,68.50
2022-11-04T22:43:30.411Z,68.40
2022-11-04T22:45:58.251Z,68.40
2022-11-04T22:48:24.855Z,68.40
2022-11-04T22:50:56.821Z,68.40
2022-11-04T22:53:24.017Z,68.30
2022-11-04T22:55:51.351Z,68.40
2022-11-04T22:58:18.466Z,68.40
2022-11-04T23:00:45.865Z,68.30
2022-11-04T23:03:12.735Z,68.30
2022-11-04T23:05:39.640Z,68.30
2022-11-04T23:08:06.306Z,68.20
2022-11-04T23:10:51.313Z,68.20
2022-11-04T23:13:36.504Z,68.10
2022-11-04T23:16:21.887Z,68.20
2022-11-04T23:18:51.336Z,68.20
2022-11-04T23:21:38.289Z,68.00
2022-11-04T23:24:24.254Z,68.10
2022-11-04T23:26:51.315Z,68.10
2022-11-04T23:29:36.995Z,68.10
2022-11-04T23:32:04.093Z,68.00
2022-11-04T23:34:49.112Z,68.00
2022-11-04T23:37:16.042Z,68.10
2022-11-04T23:39:45.304Z,68.10
2022-11-04T23:42:18.369Z,68.10
2022-11-04T23:45:06.489Z,68.70
2022-11-04T23:48:14.049Z,67.40
2022-11-04T23:50:59.460Z,68.00
2022-11-04T23:53:44.955Z,68.00
2022-11-04T23:56:30.189Z,67.30
2022-11-04T23:59:15.601Z,67.90
